Time;durP1;ratioP1;P1;durP2;ratioP2;P2;SDS_P1;SDS_P2;PMS_P1;PMS_P2;Temp;Humidity;BMP_temperature;BMP_pressure;BME280_temperature;BME280_humidity;BME280_pressure;Samples;Min_cycle;Max_cycle;Signal;HPM_P1;HPM_P2
2021/01/21 00:01:14;;;;;;;23.38;15.10;;;6.20;72.10;;;;;;5043014;28;20052;-68
2021/01/21 00:03:40;;;;;;;24.90;16.20;;;6.20;72.20;;;;;;5037942;28;20068;-68
2021/01/21 00:06:05;;;;;;;23.52;16.13;;;6.10;72.10;;;;;;5041338;28;20462;-67
2021/01/21 00:08:32;;;;;;;22.92;15.00;;;6.20;72.20;;;;;;5047700;28;20025;-69
2021/01/21 00:10:57;;;;;;;23.00;16.50;;;6.10;72.40;;;;;;5050012;28;20045;-69
2021/01/21 00:13:23;;;;;;;20.65;15.15;;;6.10;72.40;;;;;;5048814;28;20044;-68
2021/01/21 00:15:48;;;;;;;23.60;15.88;;;6.10;72.80;;;;;;5046499;28;20485;-67
2021/01/21 00:18:14;;;;;;;23.17;15.65;;;6.10;72.90;;;;;;5049091;28;20565;-67
2021/01/21 00:20:40;;;;;;;23.27;15.57;;;6.00;72.90;;;;;;5048326;28;20036;-67
2021/01/21 00:23:05;;;;;;;23.27;14.90;;;6.00;72.90;;;;;;5049225;28;20063;-67
2021/01/21 00:25:32;;;;;;;24.20;16.20;;;6.00;73.00;;;;;;5049574;28;20335;-67
2021/01/21 00:27:57;;;;;;;25.23;14.60;;;6.00;73.00;;;;;;5052288;28;20059;-67
2021/01/21 00:30:23;;;;;;;25.33;15.20;;;6.00;72.90;;;;;;5049774;28;20061;-67
2021/01/21 00:32:49;;;;;;;23.20;14.95;;;6.10;72.90;;;;;;5051698;28;20052;-67
2021/01/21 00:35:16;;;;;;;22.80;14.93;;;6.10;72.90;;;;;;5051914;28;20045;-68
2021/01/21 00:37:41;;;;;;;23.23;15.45;;;6.00;73.00;;;;;;5052882;28;20112;-68
2021/01/21 00:40:07;;;;;;;21.42;15.10;;;6.10;73.00;;;;;;5049145;28;20441;-67
2021/01/21 00:42:33;;;;;;;21.80;15.35;;;6.00;73.00;;;;;;5034010;28;20079;-67
2021/01/21 00:44:59;;;;;;;24.25;15.98;;;6.00;73.10;;;;;;5033320;28;20021;-66
2021/01/21 00:47:25;;;;;;;24.63;15.05;;;6.00;73.70;;;;;;5039845;28;20113;-67
2021/01/21 00:49:51;;;;;;;23.70;15.68;;;5.90;73.70;;;;;;5033089;28;20116;-67
2021/01/21 00:52:17;;;;;;;25.48;16.35;;;5.90;73.60;;;;;;5033093;28;20037;-66
2021/01/21 00:54:43;;;;;;;22.60;15.93;;;5.90;73.60;;;;;;5032487;28;20025;-67
2021/01/21 00:57:08;;;;;;;23.55;15.98;;;5.90;73.60;;;;;;5033771;28;20025;-68
2021/01/21 00:59:34;;;;;;;24.42;15.75;;;5.90;73.60;;;;;;5032997;28;20478;-67
2021/01/21 01:02:00;;;;;;;23.40;15.48;;;5.90;73.60;;;;;;5035410;28;20030;-68
2021/01/21 01:04:26;;;;;;;22.20;14.43;;;5.90;73.80;;;;;;5053403;28;20048;-67
2021/01/21 01:06:52;;;;;;;24.73;15.10;;;5.80;74.40;;;;;;5051448;28;20639;-68
2021/01/21 01:09:17;;;;;;;27.00;15.32;;;5.80;74.70;;;;;;5053758;28;20036;-67
2021/01/21 01:11:43;;;;;;;23.23;14.88;;;5.70;75.20;;;;;;5052764;28;20029;-67
2021/01/21 01:14:09;;;;;;;26.48;16.48;;;5.70;75.00;;;;;;5053334;28;20028;-66
2021/01/21 01:16:34;;;;;;;21.52;15.48;;;5.80;74.80;;;;;;5051895;28;20075;-69
2021/01/21 01:19:00;;;;;;;22.27;15.20;;;5.80;74.80;;;;;;5038776;28;20029;-66
2021/01/21 01:21:25;;;;;;;21.98;15.23;;;5.70;74.80;;;;;;5042407;28;20078;-67
2021/01/21 01:23:52;;;;;;;21.95;15.50;;;5.80;74.70;;;;;;5051587;28;20041;-68
2021/01/21 01:26:20;;;;;;;27.55;14.93;;;5.80;74.60;;;;;;5041035;28;20034;-67
2021/01/21 01:28:46;;;;;;;23.55;15.05;;;5.80;74.60;;;;;;5043409;28;20033;-67
2021/01/21 01:31:11;;;;;;;23.40;14.80;;;5.80;74.90;;;;;;5034032;28;20033;-67
2021/01/21 01:33:37;;;;;;;19.98;14.10;;;5.80;75.00;;;;;;5032140;28;20033;-67
2021/01/21 01:36:04;;;;;;;22.48;14.32;;;5.70;75.00;;;;;;5033907;28;20139;-67
2021/01/21 01:38:30;;;;;;;21.08;14.85;;;5.80;74.90;;;;;;5032493;28;20030;-67
2021/01/21 01:40:55;;;;;;;19.40;13.43;;;5.80;75.10;;;;;;5046577;28;20098;-68
2021/01/21 01:43:21;;;;;;;22.00;13.68;;;5.80;75.20;;;;;;5053261;28;20028;-68
2021/01/21 01:45:47;;;;;;;24.50;14.00;;;5.80;75.10;;;;;;5051699;28;20033;-67
2021/01/21 01:48:12;;;;;;;21.88;14.23;;;5.80;75.00;;;;;;5053030;28;20075;-68
2021/01/21 01:50:39;;;;;;;19.38;13.90;;;5.80;74.90;;;;;;5053051;28;20052;-67
2021/01/21 01:53:05;;;;;;;20.88;14.48;;;5.90;74.80;;;;;;5053229;28;20557;-67
2021/01/21 01:55:32;;;;;;;23.00;13.77;;;5.80;74.60;;;;;;5053127;28;20104;-67
2021/01/21 01:57:58;;;;;;;19.33;13.27;;;5.90;74.60;;;;;;5051253;28;20135;-67
2021/01/21 02:00:24;;;;;;;22.27;13.50;;;5.90;74.50;;;;;;5039263;28;20529;-66
2021/01/21 02:02:51;;;;;;;20.88;13.45;;;5.90;74.40;;;;;;5048524;28;20049;-67
2021/01/21 02:05:20;;;;;;;19.80;13.68;;;5.90;74.40;;;;;;5052983;28;20037;-68
2021/01/21 02:07:46;;;;;;;20.27;13.73;;;5.90;74.40;;;;;;5051692;28;20102;-68
2021/01/21 02:10:14;;;;;;;21.67;14.43;;;5.90;74.40;;;;;;5051928;28;20041;-67
2021/01/21 02:13:13;;;;;;;20.00;14.32;;;5.90;74.40;;;;;;5052369;28;20025;-67
2021/01/21 02:16:06;;;;;;;20.58;14.38;;;5.80;74.40;;;;;;5052171;28;20028;-67
2021/01/21 02:18:44;;;;;;;23.52;16.23;;;5.70;74.80;;;;;;5052406;28;20041;-66
2021/01/21 02:21:42;;;;;;;22.42;14.25;;;5.70;75.00;;;;;;5053170;28;20079;-66
2021/01/21 02:24:49;;;;;;;21.55;13.85;;;5.60;75.70;;;;;;5018407;28;20041;-67
2021/01/21 02:27:18;;;;;;;22.50;14.63;;;5.60;76.10;;;;;;5045815;28;20029;-67
2021/01/21 02:29:44;;;;;;;22.92;15.52;;;5.60;75.90;;;;;;5050696;28;20036;-68
2021/01/21 02:32:24;;;;;;;23.25;14.68;;;5.70;75.80;;;;;;5052591;28;20120;-68
2021/01/21 02:35:08;;;;;;;31.98;19.88;;;5.70;75.50;;;;;;5046843;28;20037;-68
2021/01/21 02:37:36;;;;;;;29.52;19.38;;;5.60;74.70;;;;;;5051908;28;20037;-67
2021/01/21 02:40:05;;;;;;;28.75;18.85;;;5.50;73.90;;;;;;5052803;28;20074;-67
2021/01/21 02:42:51;;;;;;;28.90;18.75;;;5.50;73.60;;;;;;5034980;28;20021;-68
2021/01/21 02:45:17;;;;;;;25.17;15.82;;;5.50;73.30;;;;;;5052233;28;20549;-67
2021/01/21 02:47:44;;;;;;;23.25;14.80;;;5.50;74.10;;;;;;5050377;28;20063;-68
2021/01/21 02:50:10;;;;;;;24.35;14.50;;;5.50;75.20;;;;;;5051789;28;20025;-67
2021/01/21 02:52:45;;;;;;;18.85;13.90;;;5.50;75.60;;;;;;5051659;28;20044;-68
2021/01/21 02:55:35;;;;;;;20.88;13.20;;;5.70;75.30;;;;;;5051924;28;20021;-67
2021/01/21 02:58:11;;;;;;;21.45;14.25;;;5.80;75.00;;;;;;5051116;28;20074;-67
2021/01/21 03:00:39;;;;;;;21.55;14.73;;;5.80;75.10;;;;;;5052413;28;20033;-67
2021/01/21 03:03:12;;;;;;;19.40;13.45;;;5.90;75.00;;;;;;5038045;28;20033;-67
2021/01/21 03:05:40;;;;;;;19.80;14.00;;;5.90;74.70;;;;;;5051975;28;20484;-67
2021/01/21 03:08:07;;;;;;;23.90;14.80;;;5.80;74.20;;;;;;5052112;28;20040;-67
2021/01/21 03:10:32;;;;;;;25.65;14.77;;;5.90;74.20;;;;;;5050524;28;20033;-67
2021/01/21 03:12:58;;;;;;;17.70;13.25;;;6.00;73.70;;;;;;5038314;28;20048;-67
2021/01/21 03:15:27;;;;;;;22.52;13.35;;;6.10;73.20;;;;;;5040386;28;20137;-68
2021/01/21 03:17:53;;;;;;;21.00;14.25;;;6.10;73.10;;;;;;5050683;28;20033;-68
2021/01/21 03:20:19;;;;;;;19.92;14.48;;;6.10;72.80;;;;;;5052541;28;20051;-67
2021/01/21 03:22:45;;;;;;;21.48;14.35;;;6.10;72.30;;;;;;5051317;28;20381;-67
2021/01/21 03:25:12;;;;;;;19.45;14.18;;;6.00;72.30;;;;;;5051429;28;20098;-68
2021/01/21 03:27:38;;;;;;;21.67;15.63;;;6.00;72.10;;;;;;5051440;28;20039;-68
2021/01/21 03:30:05;;;;;;;21.98;15.38;;;6.00;72.10;;;;;;5050902;28;20055;-68
2021/01/21 03:32:31;;;;;;;25.65;16.20;;;5.90;71.50;;;;;;5051994;28;20039;-67
2021/01/21 03:35:16;;;;;;;24.60;16.15;;;5.90;71.60;;;;;;5050095;28;20108;-67
2021/01/21 03:37:41;;;;;;;24.90;16.85;;;5.80;71.30;;;;;;5050658;28;20044;-67
2021/01/21 03:40:08;;;;;;;24.45;17.17;;;5.80;71.30;;;;;;5051502;28;20032;-67
2021/01/21 03:42:33;;;;;;;24.08;16.75;;;5.80;71.10;;;;;;5051240;28;20044;-67
2021/01/21 03:44:59;;;;;;;22.98;16.55;;;5.70;71.20;;;;;;5051077;28;20026;-67
2021/01/21 03:47:25;;;;;;;25.17;17.08;;;5.70;71.30;;;;;;5039007;28;20022;-67
2021/01/21 03:49:50;;;;;;;24.95;16.52;;;5.70;71.30;;;;;;5042229;28;20061;-67
2021/01/21 03:52:16;;;;;;;23.45;16.60;;;5.60;71.40;;;;;;5050609;28;20029;-67
2021/01/21 03:54:41;;;;;;;25.85;17.70;;;5.60;71.50;;;;;;5050046;28;20550;-67
2021/01/21 03:57:07;;;;;;;24.85;17.30;;;5.70;71.40;;;;;;5050280;28;20044;-67
2021/01/21 03:59:32;;;;;;;27.48;17.58;;;5.60;71.30;;;;;;5051401;28;20474;-66
2021/01/21 04:01:58;;;;;;;24.20;17.38;;;5.60;71.40;;;;;;5053939;28;20037;-68
2021/01/21 04:04:24;;;;;;;24.75;17.50;;;5.40;72.20;;;;;;5044421;28;20095;-67
2021/01/21 04:06:49;;;;;;;23.83;16.05;;;5.40;72.60;;;;;;5052635;28;20053;-67
2021/01/21 04:09:15;;;;;;;23.85;16.33;;;5.50;72.40;;;;;;5054110;28;20040;-67
2021/01/21 04:11:41;;;;;;;26.45;17.98;;;5.70;72.00;;;;;;5052895;28;20363;-68
2021/01/21 04:14:07;;;;;;;23.48;16.77;;;5.80;71.50;;;;;;5053891;28;20043;-68
2021/01/21 04:16:32;;;;;;;33.03;20.13;;;5.90;70.90;;;;;;5054687;28;20441;-67
2021/01/21 04:18:58;;;;;;;30.48;20.70;;;6.00;70.00;;;;;;5053842;28;20142;-68
2021/01/21 04:21:24;;;;;;;31.00;22.02;;;6.00;69.10;;;;;;5054144;28;20385;-68
2021/01/21 04:23:51;;;;;;;31.60;22.95;;;5.90;68.90;;;;;;5052614;28;20064;-67
2021/01/21 04:26:17;;;;;;;39.67;25.15;;;5.80;69.00;;;;;;5054958;28;20465;-67
2021/01/21 04:28:43;;;;;;;45.60;28.10;;;5.80;69.60;;;;;;5054076;28;20104;-67
2021/01/21 04:31:08;;;;;;;39.13;26.83;;;5.70;68.80;;;;;;5054176;28;20069;-67
2021/01/21 04:33:34;;;;;;;41.95;28.33;;;5.70;68.80;;;;;;5054534;28;20112;-67
2021/01/21 04:35:59;;;;;;;40.28;28.42;;;5.70;69.00;;;;;;5054494;28;20033;-71
2021/01/21 04:38:25;;;;;;;42.70;29.10;;;5.70;69.00;;;;;;5047752;28;20033;-67
2021/01/21 04:40:50;;;;;;;43.85;30.60;;;5.70;69.00;;;;;;5037010;28;20021;-67
2021/01/21 04:43:16;;;;;;;41.00;29.30;;;5.70;68.80;;;;;;5054267;28;20394;-66
2021/01/21 04:45:42;;;;;;;45.72;30.95;;;5.60;69.10;;;;;;5054265;28;20029;-67
2021/01/21 04:48:09;;;;;;;53.55;33.63;;;5.50;69.30;;;;;;5054502;28;20445;-67
2021/01/21 04:50:35;;;;;;;48.75;32.67;;;5.40;69.60;;;;;;5054457;28;20037;-66
2021/01/21 04:53:04;;;;;;;46.42;31.05;;;5.30;70.40;;;;;;5054203;28;20033;-67
2021/01/21 04:55:36;;;;;;;47.45;32.03;;;5.30;70.10;;;;;;5051347;28;20034;-67
2021/01/21 04:58:20;;;;;;;48.08;31.67;;;5.10;70.50;;;;;;5050489;28;20036;-67
2021/01/21 05:00:46;;;;;;;49.28;32.67;;;5.10;71.00;;;;;;5052586;28;20047;-66
2021/01/21 05:03:13;;;;;;;51.00;32.53;;;4.90;71.20;;;;;;5053796;28;20094;-67
2021/01/21 05:05:39;;;;;;;47.10;30.48;;;5.00;71.60;;;;;;5054500;28;20044;-67
2021/01/21 05:08:05;;;;;;;52.05;31.10;;;5.00;71.50;;;;;;5053435;28;20045;-68
2021/01/21 05:10:32;;;;;;;45.85;30.67;;;5.00;71.60;;;;;;5049949;28;20032;-68
2021/01/21 05:12:57;;;;;;;45.85;30.42;;;5.00;71.40;;;;;;5045078;28;20037;-66
2021/01/21 05:15:23;;;;;;;48.42;30.10;;;4.90;72.00;;;;;;5054161;28;20025;-67
2021/01/21 05:17:48;;;;;;;54.88;30.85;;;4.80;72.40;;;;;;5052310;28;20378;-68
2021/01/21 05:20:14;;;;;;;51.00;31.23;;;4.70;73.20;;;;;;5053765;28;20110;-67
2021/01/21 05:22:40;;;;;;;55.67;32.53;;;4.70;73.70;;;;;;5054036;28;20037;-67
2021/01/21 05:25:06;;;;;;;61.88;33.60;;;4.70;74.30;;;;;;5052926;28;20025;-67
2021/01/21 05:27:32;;;;;;;57.13;32.95;;;4.70;74.80;;;;;;5050634;28;20033;-67
2021/01/21 05:30:03;;;;;;;65.50;35.33;;;4.70;74.70;;;;;;5052994;28;20438;-68
2021/01/21 05:32:29;;;;;;;59.55;33.50;;;4.60;74.90;;;;;;5053128;28;20551;-67
2021/01/21 05:34:55;;;;;;;57.70;32.13;;;4.60;75.40;;;;;;5053158;28;20059;-67
2021/01/21 05:37:21;;;;;;;62.22;34.95;;;4.60;75.80;;;;;;5052329;28;20064;-68
2021/01/21 05:39:47;;;;;;;66.38;36.42;;;4.50;76.00;;;;;;5051585;28;20529;-68
2021/01/21 05:42:13;;;;;;;62.70;34.15;;;4.50;76.00;;;;;;5052047;28;20462;-67
2021/01/21 05:44:39;;;;;;;63.10;35.30;;;4.40;76.40;;;;;;5053446;28;20113;-68
2021/01/21 05:47:07;;;;;;;59.08;33.17;;;4.40;76.50;;;;;;5038310;28;20505;-68
2021/01/21 05:49:33;;;;;;;57.90;32.58;;;4.40;76.50;;;;;;5052170;28;20049;-68
2021/01/21 05:52:00;;;;;;;59.38;34.65;;;4.40;76.20;;;;;;5052326;28;20051;-68
2021/01/21 05:54:27;;;;;;;62.88;34.55;;;4.40;76.20;;;;;;5053591;28;20029;-67
2021/01/21 05:56:57;;;;;;;57.47;33.78;;;4.50;76.10;;;;;;5052089;28;20029;-68
2021/01/21 05:59:25;;;;;;;60.65;34.55;;;4.40;76.40;;;;;;5043665;28;20037;-66
2021/01/21 06:01:52;;;;;;;56.72;33.17;;;4.50;76.70;;;;;;5049396;28;20182;-67
2021/01/21 06:04:19;;;;;;;61.22;34.53;;;4.40;76.70;;;;;;5053425;28;20024;-68
2021/01/21 06:06:46;;;;;;;58.60;32.65;;;4.40;76.60;;;;;;5052723;28;20133;-69
2021/01/21 06:09:17;;;;;;;56.40;32.05;;;4.50;76.40;;;;;;5047273;28;20047;-67
2021/01/21 06:11:43;;;;;;;57.08;32.20;;;4.60;76.10;;;;;;5052856;28;20036;-67
2021/01/21 06:14:12;;;;;;;53.10;31.65;;;4.60;75.60;;;;;;5052375;28;20085;-67
2021/01/21 06:16:41;;;;;;;54.17;31.77;;;4.60;75.30;;;;;;5052182;28;20033;-67
2021/01/21 06:19:07;;;;;;;58.65;32.40;;;4.60;75.00;;;;;;5051463;28;20035;-68
2021/01/21 06:21:36;;;;;;;51.67;32.35;;;4.60;74.80;;;;;;5052375;28;20025;-68
2021/01/21 06:24:04;;;;;;;46.38;28.55;;;4.50;75.00;;;;;;5049202;28;20029;-68
2021/01/21 06:26:42;;;;;;;48.45;30.98;;;4.40;75.20;;;;;;5052227;28;20032;-68
2021/01/21 06:29:14;;;;;;;44.67;28.67;;;4.50;75.10;;;;;;5032545;28;20205;-69
2021/01/21 06:31:41;;;;;;;44.83;29.25;;;4.50;74.80;;;;;;5046250;28;20091;-68
2021/01/21 06:34:10;;;;;;;46.47;29.45;;;4.50;74.70;;;;;;5051845;28;20029;-67
2021/01/21 06:36:42;;;;;;;51.83;30.10;;;4.60;74.80;;;;;;5052395;28;20069;-68
2021/01/21 06:39:13;;;;;;;46.95;29.38;;;4.60;74.60;;;;;;5051770;28;20128;-67
2021/01/21 06:41:43;;;;;;;48.40;29.27;;;4.60;74.20;;;;;;5048892;28;20086;-68
2021/01/21 06:44:11;;;;;;;48.17;29.13;;;4.60;74.10;;;;;;5051998;28;20059;-68
2021/01/21 06:46:38;;;;;;;44.75;28.27;;;4.60;74.30;;;;;;5052025;28;20055;-68
2021/01/21 06:49:04;;;;;;;45.15;28.15;;;4.60;74.30;;;;;;5049292;28;20048;-69
2021/01/21 06:51:30;;;;;;;41.63;27.08;;;4.60;74.50;;;;;;5050169;28;20509;-70
2021/01/21 06:53:56;;;;;;;45.08;28.38;;;4.60;74.30;;;;;;5034609;28;20040;-68
2021/01/21 06:56:31;;;;;;;50.78;29.70;;;4.70;74.20;;;;;;5050352;28;20020;-70
2021/01/21 06:58:58;;;;;;;48.40;29.95;;;4.70;73.90;;;;;;5039216;28;20059;-68
2021/01/21 07:01:33;;;;;;;47.67;28.67;;;4.70;73.90;;;;;;5048216;28;20060;-68
2021/01/21 07:04:18;;;;;;;46.78;27.73;;;4.80;73.90;;;;;;5038198;28;20021;-68
2021/01/21 07:06:53;;;;;;;51.30;29.63;;;4.80;73.80;;;;;;5036587;28;20082;-68
2021/01/21 07:09:39;;;;;;;50.80;28.45;;;4.90;73.60;;;;;;5040560;28;20029;-69
2021/01/21 07:12:11;;;;;;;48.75;28.95;;;4.80;73.50;;;;;;5043795;28;20090;-69
2021/01/21 07:14:39;;;;;;;46.17;28.42;;;4.90;73.50;;;;;;5049895;28;20041;-69
2021/01/21 07:17:06;;;;;;;48.10;28.48;;;4.90;73.30;;;;;;5050739;28;20036;-69
2021/01/21 07:19:35;;;;;;;47.65;27.70;;;4.90;73.40;;;;;;5048106;28;20033;-69
2021/01/21 07:22:17;;;;;;;49.65;27.73;;;5.00;73.40;;;;;;5043380;28;20039;-68
2021/01/21 07:25:07;;;;;;;59.00;28.60;;;5.00;73.20;;;;;;5048085;28;20025;-68
2021/01/21 07:27:34;;;;;;;51.17;30.08;;;5.10;73.20;;;;;;5046590;28;20033;-69
2021/01/21 07:30:17;;;;;;;54.42;31.40;;;5.20;72.90;;;;;;5050090;28;20035;-68
2021/01/21 07:32:44;;;;;;;54.33;29.65;;;5.30;72.60;;;;;;5038849;28;20494;-69
2021/01/21 07:35:31;;;;;;;50.83;28.65;;;5.30;72.20;;;;;;5052903;28;20112;-71
2021/01/21 07:37:58;;;;;;;49.35;30.48;;;5.30;72.00;;;;;;5043536;28;20490;-67
2021/01/21 07:40:49;;;;;;;49.67;30.20;;;5.40;72.00;;;;;;5043578;28;20017;-68
2021/01/21 07:43:15;;;;;;;59.08;32.58;;;5.60;71.70;;;;;;5052579;28;20021;-68
2021/01/21 07:46:18;;;;;;;63.03;35.38;;;5.60;71.40;;;;;;5041783;28;20021;-70
2021/01/21 07:48:44;;;;;;;59.17;34.95;;;5.70;71.60;;;;;;5053211;28;20029;-69
2021/01/21 07:51:13;;;;;;;64.95;38.65;;;5.70;72.00;;;;;;5057392;28;20029;-68
2021/01/21 07:53:39;;;;;;;61.30;34.90;;;5.70;71.90;;;;;;5057531;28;20466;-68
2021/01/21 07:56:05;;;;;;;64.93;36.85;;;5.70;72.10;;;;;;5054564;28;20064;-68
2021/01/21 07:58:40;;;;;;;62.97;38.38;;;5.70;72.10;;;;;;5056386;28;20056;-69
2021/01/21 08:01:10;;;;;;;62.05;36.85;;;5.70;71.90;;;;;;5054052;28;20138;-69
2021/01/21 08:03:46;;;;;;;70.32;40.25;;;5.70;72.00;;;;;;5056007;28;20084;-68
2021/01/21 08:06:25;;;;;;;73.50;40.72;;;5.70;72.30;;;;;;5055289;28;20044;-69
2021/01/21 08:08:52;;;;;;;68.07;37.97;;;5.70;72.20;;;;;;5046981;28;20555;-67
2021/01/21 08:11:20;;;;;;;64.60;36.85;;;5.70;72.60;;;;;;5057229;28;20458;-68
2021/01/21 08:13:47;;;;;;;69.88;38.88;;;5.80;72.00;;;;;;5055918;28;20363;-67
2021/01/21 08:16:17;;;;;;;64.22;37.08;;;5.90;71.30;;;;;;5055053;28;20033;-69
2021/01/21 08:18:46;;;;;;;69.63;39.80;;;5.80;71.30;;;;;;5057594;28;20051;-68
2021/01/21 08:21:25;;;;;;;65.68;38.63;;;5.70;71.70;;;;;;5051388;28;20029;-67
2021/01/21 08:24:01;;;;;;;69.40;38.58;;;5.60;72.20;;;;;;5038009;28;20484;-67
2021/01/21 08:26:29;;;;;;;67.60;38.22;;;5.70;72.50;;;;;;5055194;28;20083;-67
2021/01/21 08:28:55;;;;;;;70.03;36.83;;;6.00;71.60;;;;;;5057391;28;20086;-68
2021/01/21 08:31:35;;;;;;;61.55;37.10;;;6.10;70.60;;;;;;5048977;28;20107;-69
2021/01/21 08:34:02;;;;;;;60.70;37.05;;;6.20;70.30;;;;;;5043201;28;20025;-68
2021/01/21 08:36:28;;;;;;;59.97;34.75;;;6.30;69.80;;;;;;5055670;28;20029;-68
2021/01/21 08:38:55;;;;;;;60.03;35.92;;;6.20;69.30;;;;;;5051884;28;20036;-69
2021/01/21 08:41:22;;;;;;;62.00;37.75;;;6.30;69.80;;;;;;5054098;28;20048;-66
2021/01/21 08:43:48;;;;;;;64.53;38.67;;;6.50;69.30;;;;;;5054607;28;20032;-67
2021/01/21 08:46:20;;;;;;;60.70;36.25;;;6.70;69.10;;;;;;5051360;28;20029;-68
2021/01/21 08:48:47;;;;;;;64.28;39.58;;;6.90;68.40;;;;;;5053671;28;20037;-68
2021/01/21 08:51:41;;;;;;;57.03;35.15;;;7.10;67.90;;;;;;5053478;28;20028;-68
2021/01/21 08:54:25;;;;;;;59.15;35.85;;;7.30;66.40;;;;;;5046253;28;20611;-68
2021/01/21 08:57:10;;;;;;;53.85;34.05;;;7.30;66.00;;;;;;5039910;28;20029;-68
2021/01/21 08:59:38;;;;;;;59.13;35.00;;;7.30;65.60;;;;;;5049462;28;20044;-69
2021/01/21 09:02:04;;;;;;;53.85;34.78;;;7.20;65.40;;;;;;5032808;28;20039;-68
2021/01/21 09:04:32;;;;;;;54.67;33.38;;;7.20;65.10;;;;;;5048337;28;20021;-64
2021/01/21 09:06:59;;;;;;;50.33;33.17;;;7.20;65.80;;;;;;5044735;28;20127;-63
2021/01/21 09:09:33;;;;;;;55.17;32.15;;;7.40;65.60;;;;;;5047159;28;20029;-63
2021/01/21 09:12:14;;;;;;;;;;;7.60;65.10;;;;;;5048677;28;20056;-66
2021/01/21 09:14:41;;;;;;;50.25;31.45;;;7.70;63.80;;;;;;5033789;28;20027;-69
2021/01/21 09:17:15;;;;;;;54.25;32.67;;;7.60;63.50;;;;;;5046908;28;20032;-70
2021/01/21 09:19:42;;;;;;;;;;;7.60;63.60;;;;;;5044079;28;20029;-69
2021/01/21 09:22:18;;;;;;;44.55;31.00;;;7.60;63.70;;;;;;5041931;28;19913;-70
2021/01/21 09:25:25;;;;;;;50.50;30.83;;;7.50;63.90;;;;;;5044741;28;20079;-69
2021/01/21 09:27:56;;;;;;;57.00;32.45;;;7.60;64.20;;;;;;5012765;28;20096;-68
2021/01/21 09:30:23;;;;;;;49.42;33.33;;;7.80;63.80;;;;;;5043089;28;20030;-69
2021/01/21 09:32:48;;;;;;;49.50;30.90;;;7.80;63.30;;;;;;5038271;28;20281;-72
2021/01/21 09:35:22;;;;;;;49.35;32.50;;;7.90;62.80;;;;;;5031250;28;20064;-68
2021/01/21 09:37:53;;;;;;;51.40;32.47;;;8.00;62.30;;;;;;5043021;28;20440;-69
2021/01/21 09:40:24;;;;;;;54.47;33.83;;;7.90;61.80;;;;;;5023490;28;20037;-67
2021/01/21 09:42:55;;;;;;;58.92;34.45;;;7.80;62.40;;;;;;5029751;28;20029;-69
2021/01/21 09:45:21;;;;;;;64.47;34.00;;;7.70;62.80;;;;;;5034782;28;20176;-69
2021/01/21 09:47:47;;;;;;;57.75;35.22;;;7.50;63.40;;;;;;5036840;28;20047;-69
2021/01/21 09:50:32;;;;;;;53.42;34.10;;;7.50;63.70;;;;;;5045105;28;20044;-68
2021/01/21 09:52:58;;;;;;;55.63;34.30;;;7.50;63.80;;;;;;5036054;28;20038;-68
2021/01/21 09:55:23;;;;;;;53.13;32.78;;;7.40;64.70;;;;;;5042143;28;20559;-68
2021/01/21 09:57:50;;;;;;;58.50;34.15;;;7.40;64.40;;;;;;5036419;28;20024;-72
2021/01/21 10:00:16;;;;;;;53.85;37.33;;;7.40;64.50;;;;;;5044767;28;20673;-70
2021/01/21 10:02:42;;;;;;;57.35;37.55;;;7.40;64.60;;;;;;5043669;28;20160;-70
2021/01/21 10:05:08;;;;;;;59.05;37.92;;;7.40;64.50;;;;;;5039561;28;20025;-69
2021/01/21 10:07:35;;;;;;;54.45;36.15;;;7.50;64.30;;;;;;5039869;28;20053;-69
2021/01/21 10:10:01;;;;;;;59.20;36.22;;;7.60;64.00;;;;;;5040567;28;20492;-70
2021/01/21 10:12:27;;;;;;;60.45;37.15;;;7.50;63.90;;;;;;5040276;28;20029;-69
2021/01/21 10:14:56;;;;;;;57.10;36.40;;;7.50;63.90;;;;;;5040662;28;20084;-70
2021/01/21 10:17:23;;;;;;;59.85;37.38;;;7.50;64.10;;;;;;5038782;28;20084;-71
2021/01/21 10:19:48;;;;;;;67.28;36.65;;;7.60;64.20;;;;;;5039958;28;20442;-69
2021/01/21 10:22:14;;;;;;;57.13;37.03;;;7.70;63.60;;;;;;5040121;28;20067;-67
2021/01/21 10:24:40;;;;;;;57.90;36.50;;;7.80;63.60;;;;;;5042697;28;20029;-75
2021/01/21 10:27:06;;;;;;;57.33;36.20;;;7.90;62.80;;;;;;5027350;28;20049;-69
2021/01/21 10:29:32;;;;;;;61.17;35.03;;;8.00;62.70;;;;;;5036633;28;20386;-73
2021/01/21 10:32:16;;;;;;;60.45;35.90;;;8.10;62.70;;;;;;5039762;28;20063;-70
2021/01/21 10:34:42;;;;;;;51.50;34.13;;;8.20;62.30;;;;;;5044435;28;20061;-76
2021/01/21 10:37:08;;;;;;;50.42;33.72;;;8.30;62.30;;;;;;5043358;28;20033;-69
2021/01/21 10:39:34;;;;;;;52.25;33.22;;;8.40;62.30;;;;;;5040159;28;20042;-74
2021/01/21 10:41:59;;;;;;;58.45;35.42;;;8.50;62.10;;;;;;5042263;28;20115;-74
2021/01/21 10:44:25;;;;;;;55.60;35.33;;;8.60;61.80;;;;;;5044327;28;20066;-73
2021/01/21 10:46:51;;;;;;;56.85;34.90;;;8.70;61.30;;;;;;5046642;28;20028;-72
2021/01/21 10:49:16;;;;;;;63.80;36.30;;;8.60;61.50;;;;;;5046579;28;20025;-74
2021/01/21 10:51:42;;;;;;;60.05;35.80;;;8.50;61.20;;;;;;5037583;28;20116;-75
2021/01/21 10:54:09;;;;;;;58.65;35.10;;;8.50;62.20;;;;;;5040781;28;20041;-68
2021/01/21 10:56:34;;;;;;;69.88;37.00;;;8.60;61.90;;;;;;5042890;28;20118;-74
2021/01/21 10:59:01;;;;;;;57.53;34.90;;;8.50;61.50;;;;;;5033435;28;20037;-72
2021/01/21 11:01:28;;;;;;;57.47;34.75;;;8.40;61.80;;;;;;5044276;28;20198;-74
2021/01/21 11:03:54;;;;;;;58.67;34.30;;;8.40;62.30;;;;;;5044777;28;20501;-73
2021/01/21 11:06:19;;;;;;;51.50;33.97;;;8.30;63.00;;;;;;5043641;28;20115;-74
2021/01/21 11:08:45;;;;;;;49.70;30.95;;;8.40;63.20;;;;;;5045427;28;20021;-68
2021/01/21 11:11:11;;;;;;;52.88;32.90;;;8.50;61.60;;;;;;5049634;28;20055;-74
2021/01/21 11:13:36;;;;;;;48.83;31.85;;;8.50;61.70;;;;;;5049660;28;20047;-74
2021/01/21 11:16:02;;;;;;;48.05;30.05;;;8.60;61.50;;;;;;5048084;28;20035;-73
2021/01/21 11:18:28;;;;;;;49.25;31.42;;;8.50;61.00;;;;;;5044781;28;20025;-74
2021/01/21 11:20:54;;;;;;;56.00;33.08;;;8.50;61.30;;;;;;5046953;28;20036;-75
2021/01/21 11:23:20;;;;;;;51.38;33.30;;;8.30;61.70;;;;;;5050375;28;20040;-74
2021/01/21 11:25:46;;;;;;;58.85;32.40;;;8.30;62.20;;;;;;5050404;28;20124;-72
2021/01/21 11:28:11;;;;;;;48.08;31.42;;;8.40;62.00;;;;;;5043784;28;20458;-71
2021/01/21 11:30:37;;;;;;;49.95;31.13;;;8.40;62.10;;;;;;5038065;28;20049;-73
2021/01/21 11:33:03;;;;;;;58.70;33.95;;;8.50;61.90;;;;;;5044414;28;20068;-69
2021/01/21 11:35:29;;;;;;;53.28;32.25;;;8.50;61.50;;;;;;5032197;28;20029;-74
2021/01/21 11:37:55;;;;;;;58.88;31.35;;;8.40;61.90;;;;;;5041440;28;20028;-73
2021/01/21 11:40:21;;;;;;;54.65;32.00;;;8.30;62.40;;;;;;5046150;28;20029;-73
2021/01/21 11:42:47;;;;;;;51.58;30.85;;;8.20;62.70;;;;;;5050263;28;20079;-73
2021/01/21 11:45:13;;;;;;;49.38;32.15;;;8.20;62.90;;;;;;5041074;28;20031;-72
2021/01/21 11:47:39;;;;;;;48.50;30.75;;;8.20;62.90;;;;;;5031060;28;20052;-72
2021/01/21 11:50:11;;;;;;;54.33;33.03;;;8.50;62.60;;;;;;5032005;28;20021;-73
2021/01/21 11:52:38;;;;;;;54.45;31.40;;;8.70;62.00;;;;;;5033217;28;20043;-68
2021/01/21 11:55:05;;;;;;;56.17;33.53;;;8.90;61.20;;;;;;5049827;28;20033;-63
2021/01/21 11:57:30;;;;;;;51.60;31.30;;;9.00;60.80;;;;;;5048688;28;20403;-61
2021/01/21 11:59:57;;;;;;;55.75;32.17;;;9.10;60.50;;;;;;5039361;28;20022;-67
2021/01/21 12:02:23;;;;;;;52.35;32.42;;;9.10;60.50;;;;;;5043612;28;20075;-69
2021/01/21 12:04:49;;;;;;;50.28;31.45;;;9.40;59.90;;;;;;5043089;28;20017;-71
2021/01/21 12:07:14;;;;;;;56.45;32.75;;;9.40;59.10;;;;;;5041861;28;20088;-63
2021/01/21 12:09:40;;;;;;;54.10;33.20;;;9.20;59.20;;;;;;5040252;28;20040;-69
2021/01/21 12:12:06;;;;;;;56.47;34.88;;;9.00;59.70;;;;;;5037197;28;20044;-68
2021/01/21 12:14:33;;;;;;;66.22;35.08;;;8.70;60.40;;;;;;5035872;28;20064;-70
2021/01/21 12:16:58;;;;;;;53.63;33.80;;;8.60;61.10;;;;;;5037037;28;20033;-69
2021/01/21 12:19:24;;;;;;;52.65;34.55;;;8.50;61.70;;;;;;5040471;28;20018;-67
2021/01/21 12:21:50;;;;;;;52.63;32.85;;;8.30;62.10;;;;;;5038610;28;20064;-69
2021/01/21 12:24:15;;;;;;;54.55;33.92;;;8.30;62.20;;;;;;5042839;28;20554;-68
2021/01/21 12:26:41;;;;;;;57.92;33.53;;;8.30;62.60;;;;;;5053215;28;20465;-68
2021/01/21 12:29:07;;;;;;;55.88;33.28;;;8.20;62.90;;;;;;5048907;28;20032;-70
2021/01/21 12:31:32;;;;;;;53.50;32.17;;;8.10;63.20;;;;;;5052198;28;20067;-68
2021/01/21 12:33:58;;;;;;;54.15;33.88;;;7.90;64.10;;;;;;5049764;28;20060;-70
2021/01/21 12:36:24;;;;;;;54.15;33.25;;;7.80;64.70;;;;;;5042710;28;20036;-72
2021/01/21 12:38:49;;;;;;;60.72;34.88;;;7.90;64.80;;;;;;5051497;28;20037;-74
2021/01/21 12:41:15;;;;;;;59.67;34.45;;;8.00;64.40;;;;;;5046953;28;20030;-70
2021/01/21 12:43:41;;;;;;;64.57;33.13;;;8.20;64.20;;;;;;5041048;28;20389;-67
2021/01/21 12:46:09;;;;;;;61.05;34.05;;;8.30;63.20;;;;;;5042159;28;20104;-64